Flight Track Log - Related Links

Times and Time Zones

All times are in EDT time to prevent confusion due to time zone crossing. See the AAL1398 flight status page for this flight to view local times or setup timezone preferences in your user account.

Time Position Orientation Groundspeed Altitude Reporting Facility
EDT Latitude Longitude Course Direction KTS MPH feet Rate Location/Type
Thu 12:52:00 PM 18.6053 -69.7844 328° Northwest  Level FlightAware Approximate
Thu 12:53:00 PM 18.6931 -69.8422 328° Northwest  Level FlightAware Approximate
Thu 12:54:00 PM 18.7808 -69.9001 328° Northwest  Level FlightAware Approximate
Thu 12:55:00 PM 18.8686 -69.9581 328° Northwest  Level FlightAware Approximate
Thu 12:56:00 PM 18.9563 -70.0161 328° Northwest  Level FlightAware Approximate
Thu 12:56:44 PM 18.7236 -69.8358 327° Northwest 470 541 17,000  Level Miami Center
Thu 12:57:00 PM 19.0440 -70.0742 328° Northwest  Level FlightAware Approximate
Thu 12:57:44 PM 18.8100 -69.9036 323° Northwest 437 503 19,300  Level Miami Center
Thu 12:58:00 PM 19.1317 -70.1323 328° Northwest  Level FlightAware Approximate
Thu 12:58:44 PM 18.9022 -69.9714 325° Northwest 414 476 21,700  Level Miami Center
Thu 12:59:00 PM 19.2063 -70.1880 325° Northwest  Level FlightAware Approximate
Thu 12:59:44 PM 18.9756 -70.0269 324° Northwest 409 471 23,600  Level Miami Center
Thu 01:00:00 PM 19.2918 -70.2521 325° Northwest  Level FlightAware Approximate
Thu 01:00:44 PM 19.0986 -70.0822 337° Northwest 394 453 26,200  Level Miami Center
Thu 01:01:00 PM 19.3787 -70.3141 327° Northwest  Level FlightAware Approximate
Thu 01:01:44 PM 19.1833 -70.1703 316° Northwest 413 475 28,800  Level Miami Center
Thu 01:02:00 PM 19.4669 -70.3740 327° Northwest  Level FlightAware Approximate
Thu 01:02:44 PM 19.2744 -70.2536 319° Northwest 413 475 30,300  Level Miami Center
Thu 01:03:44 PM 19.3689 -70.3217 326° Northwest 413 475 32,500 2,200 Climbing Miami Center
Thu 01:04:44 PM 19.4569 -70.3922 323° Northwest 413 475 34,700 1,750 Climbing Miami Center
Thu 01:05:44 PM 19.5472 -70.4583 325° Northwest 402 463 36,000 650 Climbing Miami Center
Thu 01:06:44 PM 19.6331 -70.5247 324° Northwest 397 457 36,000  Level Miami Center
Thu 01:07:44 PM 19.7233 -70.5911 325° Northwest 397 457 36,000  Level Miami Center
Thu 01:08:44 PM 19.8094 -70.6600 323° Northwest 397 457 36,000  Level Miami Center
Thu 01:09:44 PM 19.8975 -70.7286 324° Northwest 397 457 36,000  Level Miami Center
Thu 01:10:44 PM 19.9811 -70.7933 324° Northwest 397 457 36,000  Level Miami Center
Thu 01:11:44 PM 20.0692 -70.8578 325° Northwest 397 457 36,000  Level Miami Center
Thu 01:12:44 PM 20.1572 -70.9247 324° Northwest 397 457 36,000  Level Miami Center
Thu 01:13:44 PM 20.2450 -70.9917 324° Northwest 397 457 36,000  Level Miami Center
Thu 01:14:44 PM 20.3311 -71.0608 323° Northwest 397 457 36,000  Level Miami Center
Thu 01:15:44 PM 20.4083 -71.1194 325° Northwest 392 451 36,000  Level Miami Center
Thu 01:16:44 PM 20.4719 -71.2075 308° West 385 443 36,000  Level Miami Center
Thu 01:17:44 PM 20.5297 -71.3069 302° West 385 443 36,000  Level Miami Center
Thu 01:18:44 PM 20.5894 -71.4019 304° West 390 449 36,000  Level Miami Center
Thu 01:19:44 PM 20.6489 -71.4947 304° West 390 449 36,000  Level Miami Center
Thu 01:20:44 PM 20.7083 -71.5900 304° West 390 449 36,000  Level Miami Center
Thu 01:21:44 PM 20.7681 -71.6875 303° West 385 443 36,000  Level Miami Center
Thu 01:22:44 PM 20.8253 -71.7806 303° West 380 437 36,000  Level Miami Center
Thu 01:23:44 PM 20.8869 -71.8781 304° West 386 444 36,000  Level Miami Center
Thu 01:24:44 PM 20.9464 -71.9736 304° West 386 444 36,000  Level Miami Center
Thu 01:25:44 PM 21.0036 -72.0694 303° West 380 437 36,000  Level Miami Center
Thu 01:26:44 PM 21.0650 -72.1650 305° West 385 443 36,000  Level Miami Center
Thu 01:27:44 PM 21.1219 -72.2631 302° West 385 443 36,000  Level Miami Center
Thu 01:28:44 PM 21.1833 -72.3611 304° West 385 443 36,000  Level Miami Center
Thu 01:29:44 PM 21.2425 -72.4569 304° West 385 443 36,000  Level Miami Center
Thu 01:30:44 PM 21.3017 -72.5553 303° West 385 443 36,000  Level Miami Center
Thu 01:31:44 PM 21.3628 -72.6536 304° West 385 443 36,000  Level Miami Center
Thu 01:32:44 PM 21.4261 -72.7542 304° West 390 449 36,000  Level Miami Center
Thu 01:33:44 PM 21.4828 -72.8506 302° West 390 449 36,000  Level Miami Center
Thu 01:34:44 PM 21.5417 -72.9492 303° West 390 449 36,000  Level Miami Center
Thu 01:35:44 PM 21.6028 -73.0478 304° West 395 455 36,000  Level Miami Center
Thu 01:36:44 PM 21.6614 -73.1467 303° West 395 455 36,000  Level Miami Center
Thu 01:37:44 PM 21.7200 -73.2433 303° West 395 455 36,000  Level Miami Center
Thu 01:38:00 PM 21.7318 -73.2639 303° West  Level FlightAware Approximate
Thu 01:38:44 PM 21.7789 -73.3400 303° West 395 455 36,000  Level Miami Center
Thu 01:39:44 PM 21.8375 -73.4414 302° West 395 455 36,000  Level Miami Center
Thu 01:40:44 PM 21.9044 -73.5447 305° West 401 461 36,000  Level Miami Center
Thu 01:41:44 PM 21.9631 -73.6439 303° West 394 453 36,000  Level Miami Center
Thu 01:43:00 PM 22.0313 -73.7629 302° West  Level FlightAware Approximate
Thu 01:44:44 PM 22.1275 -73.9314 304° West 394 453 36,000  Level Miami Center
Thu 01:45:44 PM 22.1836 -74.0311 301° West 394 453 36,000  Level Miami Center
Thu 01:46:44 PM 22.2439 -74.1261 304° West 394 453 36,000  Level Miami Center
Thu 01:47:44 PM 22.3019 -74.2281 302° West 394 453 36,000  Level Miami Center
Thu 01:48:44 PM 22.3600 -74.3258 303° West 394 453 36,000  Level Miami Center
Thu 01:49:44 PM 22.4203 -74.4236 304° West 394 453 36,000  Level Miami Center
Thu 01:50:00 PM 22.4160 -74.4165 304° West  Level FlightAware Approximate
Thu 01:50:44 PM 22.4781 -74.5236 302° West 394 453 36,000  Level Miami Center
Thu 01:51:44 PM 22.5381 -74.6214 304° West 394 453 36,000  Level Miami Center
Thu 01:52:44 PM 22.5939 -74.7217 301° West 394 453 36,000  Level Miami Center
Thu 01:53:44 PM 22.6539 -74.8219 303° West 394 453 36,000  Level Miami Center
Thu 01:54:44 PM 22.7114 -74.9200 302° West 394 453 36,000  Level Miami Center
Thu 01:55:44 PM 22.7711 -75.0183 303° West 394 453 36,000  Level Miami Center
Thu 01:56:44 PM 22.8267 -75.1189 301° West 394 453 36,000  Level Miami Center
Thu 01:57:44 PM 22.8842 -75.2175 302° West 389 448 36,000  Level Miami Center
Thu 01:58:44 PM 22.9439 -75.3158 303° West 389 448 36,000  Level Miami Center
Thu 01:59:44 PM 23.0011 -75.4167 302° West 389 448 36,000  Level Miami Center
Thu 02:00:44 PM 23.0628 -75.5244 302° West 384 442 36,000  Level Miami Center
Thu 02:01:44 PM 23.1200 -75.6256 302° West 384 442 36,000  Level Miami Center
Thu 02:02:44 PM 23.1772 -75.7244 302° West 384 442 36,000  Level Miami Center
Thu 02:03:44 PM 23.2344 -75.8278 301° West 384 442 36,000  Level Miami Center
Thu 02:04:44 PM 23.2936 -75.9314 302° West 390 449 36,000  Level Miami Center
Thu 02:05:44 PM 23.3547 -76.0328 303° West 395 455 36,000  Level Miami Center
Thu 02:06:44 PM 23.4117 -76.1344 301° West 400 460 36,000  Level Miami Center
Thu 02:07:44 PM 23.4708 -76.2336 303° West 400 460 36,000  Level Miami Center
Thu 02:08:44 PM 23.5211 -76.3242 301° West 400 460 36,000  Level Miami Center
Thu 02:09:44 PM 23.5800 -76.4258 302° West 400 460 36,000  Level Miami Center
Thu 02:10:44 PM 23.6389 -76.5278 302° West 400 460 36,000  Level Miami Center
Thu 02:11:44 PM 23.6956 -76.6275 302° West 395 455 36,000  Level Miami Center
Thu 02:12:44 PM 23.7519 -76.7294 301° West 395 455 36,000  Level Miami Center
Thu 02:13:44 PM 23.8086 -76.8317 301° West 395 455 36,000  Level Miami Center
Thu 02:14:44 PM 23.8650 -76.9339 301° West 395 455 36,000  Level Miami Center
Thu 02:15:44 PM 23.9214 -77.0361 301° West 390 449 36,000  Level Miami Center
Thu 02:16:44 PM 23.9797 -77.1364 302° West 395 455 36,000  Level Miami Center
Thu 02:17:44 PM 24.0381 -77.2433 301° West 401 461 36,000  Level Miami Center
Thu 02:18:44 PM 24.0961 -77.3506 301° West 401 461 36,000  Level Miami Center
Thu 02:19:55 PM 24.1542 -77.4533 302° West 396 456 36,000  Level Miami Center
Thu 02:20:56 PM 24.2228 -77.5789 301° West 402 463 36,000  Level Miami Center
Thu 02:21:56 PM 24.2869 -77.6933 302° West 402 463 36,000  Level Miami Center
Thu 02:22:56 PM 24.3447 -77.7986 301° West 397 457 36,000  Level Miami Center
Thu 02:23:56 PM 24.4025 -77.9017 302° West 402 463 36,000  Level Miami Center
Thu 02:24:56 PM 24.4583 -78.0072 300° West 402 463 36,000  Level Miami Center
Thu 02:25:56 PM 24.5161 -78.1106 302° West 402 463 36,000  Level Miami Center
Thu 02:26:56 PM 24.5756 -78.2186 301° West 402 463 36,000  Level Miami Center
Thu 02:27:56 PM 24.6311 -78.3219 301° West 402 463 36,000  Level Miami Center
Thu 02:28:56 PM 24.6906 -78.4256 302° West 402 463 36,000  Level Miami Center
Thu 02:29:56 PM 24.7458 -78.5317 300° West 402 463 36,000 -150 Level Miami Center
Thu 02:30:56 PM 24.8011 -78.6353 300° West 397 457 35,700 -1,050 Descending Miami Center
Thu 02:31:56 PM 24.8603 -78.7414 302° West 397 457 33,900 -1,600 Descending Miami Center
Thu 02:32:56 PM 24.9194 -78.8525 300° West 402 463 32,500 -1,650 Descending Miami Center
Thu 02:33:56 PM 24.9828 -78.9567 304° West 408 470 30,600 -2,800 Descending Miami Center
Thu 02:34:56 PM 25.0375 -79.0744 297° West 415 478 26,900 -3,400 Descending Miami Center
Thu 02:35:56 PM 25.1069 -79.1858 305° West 428 493 23,800 -3,000 Descending Miami Center
Thu 02:36:56 PM 25.1656 -79.3017 299° West 433 498 20,900 -2,850 Descending Miami Center
Thu 02:37:56 PM 25.2286 -79.4133 302° West 428 493 18,100 -2,600 Descending Miami Center
Thu 02:38:56 PM 25.2831 -79.5225 299° West 422 486 15,700 -2,541 Descending Miami Center
Thu 02:39:21 PM 25.3072 -79.5758 297° West 406 467 14,500 -2,500 Descending Miami Center
Thu 02:39:56 PM 25.3417 -79.6294 305° West 416 479 13,200 -2,250 Descending Miami Center
Thu 02:40:17 PM 25.3575 -79.6689 294° West 390 449 12,400 -1,200 Descending Miami Center
Thu 02:40:56 PM 25.3942 -79.7272 305° West 396 456 12,000 -537 Descending Miami Center
Thu 02:41:24 PM 25.4183 -79.7717 301° West 332 382 11,800 -1,000 Descending Miami Center
Thu 02:41:56 PM 25.4467 -79.8114 308° West 362 417 11,000 -1,770 Descending Miami Center
Thu 02:42:25 PM 25.4731 -79.8556 304° West 327 376 10,000 -1,000 Descending Miami Center
Thu 02:42:56 PM 25.5014 -79.8933 310° West 344 396 10,000 -107 Level Miami Center
Thu 02:43:21 PM 25.5217 -79.9328 300° West 330 380 9,900 -100 Descending Miami Center
Thu 02:43:56 PM 25.5542 -79.9706 314° West 331 381 9,900 -590 Level Miami Center
Thu 02:44:22 PM 25.5722 -80.0078 298° West 284 327 9,300 -1,300 Descending Miami Center
Thu 02:44:56 PM 25.6008 -80.0431 312° West 315 362 8,600 -1,279 Descending Miami Center
Thu 02:45:23 PM 25.6208 -80.0806 301° West 284 327 8,000 -600 Descending Miami Center
Thu 02:45:56 PM 25.6472 -80.1136 312° West 294 338 8,000  Level Miami Center
Thu 02:46:24 PM 25.6631 -80.1553 293° West 282 325 8,000  Level Miami Center
Thu 02:46:56 PM 25.6789 -80.1928 295° West 286 329 8,000 -88 Level Miami Center
Thu 02:47:32 PM 25.6881 -80.2461 281° West 255 293 7,900 -200 Descending Miami Center
Thu 02:47:56 PM 25.6981 -80.2694 295° West 270 311 7,800 -896 Descending Miami Center
Thu 02:48:39 PM 25.7092 -80.3250 283° West 232 267 6,900 -1,100 Descending Miami Center
Thu 02:48:56 PM 25.7111 -80.3389 279° West 255 293 6,700 -1,527 Descending Miami Center
Thu 02:49:34 PM 25.7078 -80.3919 266° West 233 268 5,500 -1,787 Descending Miami Center
Thu 02:50:30 PM 25.7039 -80.4586 266° West 235 270 3,900 -1,487 Descending Miami Center
Thu 02:51:31 PM 25.7558 -80.4692 350° North 237 273 2,600 -1,279 Descending Miami Center

Login

Don't have an account? Register now (free) for customized features, flight alerts, and more!